Bay Village, Ohio
Current Conditions -  °F | °C
As of 3:51 PM on Monday 24 Nov 2014 (Local Time) from KCLE Reporting Station
Broken Clouds Broken Clouds  
Wind Chill: 41°   Ceiling: 3400
Heat Index: 49°   Visibility: 10mi
Dew Point: 38°   Wind: 29mph
Humidity: 66%   Direction: 220°SW
Pressure: 29.52"   Gusts: 43mph
Location:  41.48°N, 81.92°W
Report Text: KCLE 242051Z 22025G37KT 10SM BKN034 BKN043 09/03 A2952 RMK AO2 PK WND 25043/2002 SLP997 T00940033 53073 $
Loading
Personal Weather Stations






























Interactive Weather Map New forecast layout! Learn more

10-Day Weather Forecast

Advertisements
Track Severe Weather on mobile